Time;durP1;ratioP1;P1;durP2;ratioP2;P2;SDS_P1;SDS_P2;PMS_P1;PMS_P2;Temp;Humidity;BMP_temperature;BMP_pressure;BME280_temperature;BME280_humidity;BME280_pressure;Samples;Min_cycle;Max_cycle;Signal;HPM_P1;HPM_P2
2022/04/19 00:00:42;;;;;;;6.95;4.53;;;;;;;7.41;74.44;101645.63;5032370;28;20276;-70
2022/04/19 00:03:09;;;;;;;7.30;4.75;;;;;;;7.41;74.39;101635.06;5034232;28;20036;-70
2022/04/19 00:05:36;;;;;;;7.72;4.95;;;;;;;7.42;74.69;101636.81;5031849;28;20034;-69
2022/04/19 00:08:03;;;;;;;6.65;4.68;;;;;;;7.41;74.29;101631.59;5033079;28;20043;-69
2022/04/19 00:10:28;;;;;;;8.93;5.10;;;;;;;7.42;74.57;101634.19;5030751;28;20531;-69
2022/04/19 00:12:55;;;;;;;7.10;4.53;;;;;;;7.41;74.37;101632.44;5030408;28;20483;-69
2022/04/19 00:15:22;;;;;;;6.70;4.43;;;;;;;7.38;74.45;101629.00;5034528;28;20602;-69
2022/04/19 00:17:48;;;;;;;5.47;3.90;;;;;;;7.36;74.22;101631.69;5031426;28;20075;-69
2022/04/19 00:20:14;;;;;;;7.20;4.55;;;;;;;7.34;73.90;101630.81;5033008;28;20542;-69
2022/04/19 00:22:39;;;;;;;6.47;4.30;;;;;;;7.32;74.34;101627.38;5031018;28;20028;-69
2022/04/19 00:25:07;;;;;;;8.65;4.50;;;;;;;7.30;74.16;101634.44;5034095;28;20112;-68
2022/04/19 00:27:33;;;;;;;6.70;4.57;;;;;;;7.30;74.38;101631.81;5015073;28;20037;-68
2022/04/19 00:29:59;;;;;;;7.75;5.00;;;;;;;7.28;73.84;101625.66;5013754;28;20128;-68
2022/04/19 00:32:24;;;;;;;8.13;4.32;;;;;;;7.27;73.57;101632.72;5032076;28;20041;-68
2022/04/19 00:34:51;;;;;;;7.55;4.75;;;;;;;7.24;73.55;101627.50;5020470;28;20043;-68
2022/04/19 00:37:18;;;;;;;8.15;4.60;;;;;;;7.22;73.74;101626.66;5030626;28;20033;-68
2022/04/19 00:39:44;;;;;;;7.85;4.32;;;;;;;7.19;73.59;101624.97;5033964;28;20047;-70
2022/04/19 00:42:10;;;;;;;8.05;4.50;;;;;;;7.16;73.64;101626.78;5031930;28;20200;-69
2022/04/19 00:44:39;;;;;;;6.70;4.25;;;;;;;7.13;74.05;101627.69;5032476;28;20025;-70
2022/04/19 00:47:06;;;;;;;8.10;4.70;;;;;;;7.10;74.19;101629.53;5033366;28;20032;-69
2022/04/19 00:49:33;;;;;;;7.13;4.45;;;;;;;7.06;74.12;101639.25;5036357;28;20029;-69
2022/04/19 00:51:59;;;;;;;6.50;4.35;;;;;;;7.03;73.90;101636.69;5036951;28;20076;-69
2022/04/19 00:54:25;;;;;;;7.35;4.45;;;;;;;6.99;73.86;101634.97;5027184;28;20060;-69
2022/04/19 00:56:51;;;;;;;7.47;4.50;;;;;;;6.97;73.79;101634.16;5018744;28;20813;-69
2022/04/19 00:59:20;;;;;;;7.70;4.60;;;;;;;6.94;73.97;101640.34;5025174;28;20033;-69
2022/04/19 01:01:45;;;;;;;7.20;4.30;;;;;;;6.92;74.23;101637.72;5034747;28;20030;-69
2022/04/19 01:04:11;;;;;;;6.93;4.63;;;;;;;6.92;73.91;101643.00;5035086;28;20511;-69
2022/04/19 01:06:36;;;;;;;8.75;5.05;;;;;;;6.91;73.97;101635.09;5036033;28;20042;-69
2022/04/19 01:09:02;;;;;;;7.68;4.35;;;;;;;6.88;73.93;101635.19;5020035;28;20128;-69
2022/04/19 01:14:13;;;;;;;5.57;4.10;;;;;;;6.87;74.44;101638.72;5026430;28;20041;-70
2022/04/19 01:16:40;;;;;;;7.68;4.47;;;;;;;6.85;74.83;101630.81;5038182;28;20055;-70
2022/04/19 01:19:15;;;;;;;6.43;4.35;;;;;;;6.84;74.67;101630.84;5036010;28;20033;-69
2022/04/19 01:21:55;;;;;;;9.80;4.72;;;;;;;6.82;74.65;101632.66;5036044;28;20037;-69
2022/04/19 01:24:23;;;;;;;7.53;4.50;;;;;;;6.76;74.83;101629.22;5013058;28;21435;-69
2022/04/19 01:26:49;;;;;;;7.53;4.50;;;;;;;6.74;74.96;101628.38;5036078;28;20034;-69
2022/04/19 01:29:15;;;;;;;6.35;4.18;;;;;;;6.76;74.82;101625.72;5037391;28;21539;-69
2022/04/19 01:31:42;;;;;;;7.00;4.30;;;;;;;6.74;74.46;101622.25;5035897;28;20041;-68
2022/04/19 01:34:08;;;;;;;6.43;4.28;;;;;;;6.74;74.55;101616.97;5032804;28;20051;-68
2022/04/19 01:36:38;;;;;;;7.50;4.20;;;;;;;6.75;74.58;101624.00;5033717;28;20037;-68
2022/04/19 01:39:08;;;;;;;8.07;4.45;;;;;;;6.73;74.43;101621.38;5007605;28;20029;-68
2022/04/19 01:41:34;;;;;;;5.40;3.95;;;;;;;6.73;74.73;101616.13;5036361;28;20475;-69
2022/04/19 01:44:00;;;;;;;8.32;4.38;;;;;;;6.75;75.03;101618.75;5034800;28;20171;-69
2022/04/19 01:46:26;;;;;;;6.45;4.70;;;;;;;6.81;74.99;101623.03;5037038;28;20068;-69
2022/04/19 01:48:55;;;;;;;7.32;4.65;;;;;;;6.86;74.86;101621.19;5035677;28;20353;-69
2022/04/19 01:51:21;;;;;;;7.43;4.45;;;;;;;6.86;75.01;101613.28;5034631;28;20028;-69
2022/04/19 01:53:48;;;;;;;7.70;4.95;;;;;;;6.85;74.65;101609.78;5031598;28;20040;-68
2022/04/19 01:56:14;;;;;;;7.95;4.97;;;;;;;6.81;75.00;101615.97;5033653;28;20131;-68
2022/04/19 01:58:39;;;;;;;8.13;4.88;;;;;;;6.79;74.63;101609.88;5035855;28;20049;-67
2022/04/19 02:01:05;;;;;;;6.82;4.30;;;;;;;6.78;74.89;101608.16;5033795;28;20045;-68
2022/04/19 02:03:31;;;;;;;7.05;4.22;;;;;;;6.76;74.87;101613.44;5017935;28;20052;-68
2022/04/19 02:05:56;;;;;;;7.00;4.70;;;;;;;6.76;75.12;101608.16;5037154;28;20428;-68
2022/04/19 02:08:22;;;;;;;6.78;4.13;;;;;;;6.73;75.00;101602.97;5017470;28;20379;-68
2022/04/19 02:10:47;;;;;;;6.72;4.30;;;;;;;6.71;75.06;101603.88;5034332;28;20032;-68
2022/04/19 02:13:13;;;;;;;8.38;4.72;;;;;;;6.71;75.25;101606.50;5017394;28;20043;-68
2022/04/19 02:15:39;;;;;;;6.50;4.50;;;;;;;6.73;74.80;101602.09;5034098;28;20036;-68
2022/04/19 02:18:05;;;;;;;7.57;4.32;;;;;;;6.75;74.66;101605.56;5018054;28;20134;-68
2022/04/19 02:20:31;;;;;;;5.97;4.03;;;;;;;6.77;74.99;101590.63;5033594;28;20155;-68
2022/04/19 02:22:56;;;;;;;6.45;4.45;;;;;;;6.78;74.59;101597.63;5015834;28;20106;-69
2022/04/19 02:25:24;;;;;;;8.65;4.80;;;;;;;6.77;75.03;101604.63;5034045;28;20041;-68
2022/04/19 02:27:50;;;;;;;8.18;4.53;;;;;;;6.78;75.20;101597.63;5035538;28;21595;-69
2022/04/19 02:30:16;;;;;;;6.68;4.25;;;;;;;6.80;75.46;101590.56;5034524;28;20043;-68
2022/04/19 02:32:44;;;;;;;7.75;4.35;;;;;;;6.79;75.19;101594.97;5034081;28;20464;-70
2022/04/19 02:35:09;;;;;;;7.05;4.78;;;;;;;6.76;75.17;101595.00;5036102;28;20033;-69
2022/04/19 02:37:36;;;;;;;8.48;4.65;;;;;;;6.72;75.75;101597.72;5034366;28;20040;-69
2022/04/19 02:40:01;;;;;;;5.97;4.30;;;;;;;6.66;75.56;101594.28;5036039;28;20044;-69
2022/04/19 02:42:27;;;;;;;7.78;4.78;;;;;;;6.64;75.96;101603.97;5033816;28;20045;-69
2022/04/19 02:44:52;;;;;;;7.28;4.63;;;;;;;6.59;76.18;101592.66;5036548;28;20519;-69
2022/04/19 02:47:18;;;;;;;7.90;4.30;;;;;;;6.54;76.54;101593.63;5033314;28;20072;-69
2022/04/19 02:49:46;;;;;;;8.07;4.97;;;;;;;6.51;76.49;101595.44;5034677;28;20029;-69
2022/04/19 02:52:12;;;;;;;7.55;4.70;;;;;;;6.49;76.26;101597.19;5035402;28;20037;-70
2022/04/19 02:54:37;;;;;;;8.10;4.97;;;;;;;6.45;76.85;101599.91;5033412;28;20071;-68
2022/04/19 02:57:04;;;;;;;9.02;4.93;;;;;;;6.41;77.19;101596.47;5032345;28;20412;-68
2022/04/19 02:59:29;;;;;;;7.93;4.95;;;;;;;6.36;77.15;101598.28;5033661;28;20036;-69
2022/04/19 03:01:55;;;;;;;7.53;4.60;;;;;;;6.29;77.70;101592.28;5034505;28;20040;-69
2022/04/19 03:04:20;;;;;;;8.18;4.88;;;;;;;6.26;77.40;101602.81;5034914;28;20052;-69
2022/04/19 03:06:47;;;;;;;8.70;5.53;;;;;;;6.18;77.77;101607.34;5033110;28;20148;-69
2022/04/19 03:09:12;;;;;;;6.40;4.60;;;;;;;6.13;77.74;101601.25;5033786;28;20052;-69
2022/04/19 03:11:38;;;;;;;9.27;5.22;;;;;;;6.07;77.65;101600.50;5033797;28;20108;-69
2022/04/19 03:14:06;;;;;;;9.55;4.80;;;;;;;6.04;77.97;101603.16;5034135;28;20025;-70
2022/04/19 03:16:32;;;;;;;9.57;5.75;;;;;;;6.02;78.29;101602.31;5033752;28;20032;-68
2022/04/19 03:18:58;;;;;;;7.90;4.88;;;;;;;6.00;78.60;101601.44;5034325;28;20041;-68
2022/04/19 03:21:24;;;;;;;10.88;5.22;;;;;;;5.98;78.47;101595.31;5035201;28;20036;-68
2022/04/19 03:29:19;;;;;;;9.40;5.28;;;;;;;5.96;78.51;101592.72;5034624;28;20044;-69
2022/04/19 03:31:45;;;;;;;7.60;4.63;;;;;;;5.95;78.48;101593.59;5031866;28;20032;-68
2022/04/19 03:34:11;;;;;;;6.78;4.70;;;;;;;5.95;78.20;101600.63;5017274;28;20021;-68
2022/04/19 03:36:36;;;;;;;7.70;4.93;;;;;;;5.97;78.29;101599.72;5032763;28;20040;-68
2022/04/19 03:39:02;;;;;;;6.63;4.32;;;;;;;5.96;77.75;101594.47;5035339;28;20479;-69
2022/04/19 03:41:27;;;;;;;9.40;4.75;;;;;;;5.95;77.79;101598.00;5024405;28;20046;-69
2022/04/19 03:43:53;;;;;;;7.80;4.70;;;;;;;5.94;77.63;101602.38;5016253;28;20661;-69
2022/04/19 03:46:19;;;;;;;6.80;4.60;;;;;;;5.95;77.70;101605.88;5015729;28;20370;-68
2022/04/19 03:48:45;;;;;;;9.30;4.88;;;;;;;5.96;77.83;101602.34;4986789;28;20327;-69
2022/04/19 03:51:10;;;;;;;7.20;5.00;;;;;;;5.95;77.92;101606.72;4997395;28;20043;-68
2022/04/19 03:53:36;;;;;;;7.45;4.88;;;;;;;5.94;77.87;101602.38;5015542;28;20469;-68
2022/04/19 03:56:03;;;;;;;10.45;4.82;;;;;;;5.95;77.79;101605.88;5015681;28;20060;-68
2022/04/19 03:58:32;;;;;;;7.75;4.88;;;;;;;6.01;77.87;101613.69;4997248;28;20427;-69
2022/04/19 04:00:58;;;;;;;8.43;4.50;;;;;;;6.04;78.02;101605.78;5015955;28;20048;-69
2022/04/19 04:03:24;;;;;;;9.90;5.28;;;;;;;6.06;77.49;101609.25;4995097;28;20396;-69
2022/04/19 04:05:49;;;;;;;7.38;4.90;;;;;;;6.06;77.38;101606.63;5005293;28;20078;-68
2022/04/19 04:08:15;;;;;;;7.85;5.10;;;;;;;6.08;78.04;101617.13;5014975;28;20048;-69
2022/04/19 04:10:40;;;;;;;11.35;5.13;;;;;;;6.06;78.31;101614.50;5015464;28;20514;-68
2022/04/19 04:13:06;;;;;;;9.73;5.50;;;;;;;6.03;77.73;101611.03;5015631;28;20033;-68
2022/04/19 04:15:31;;;;;;;7.25;5.03;;;;;;;6.00;77.93;101613.69;5014319;28;20029;-68
2022/04/19 04:17:57;;;;;;;9.23;5.00;;;;;;;5.96;78.09;101613.75;5014956;28;20212;-70
2022/04/19 04:20:22;;;;;;;9.35;5.20;;;;;;;5.96;78.35;101615.50;5015004;28;20052;-68
2022/04/19 04:22:48;;;;;;;9.38;5.82;;;;;;;5.95;77.76;101616.41;4996879;28;20096;-68
2022/04/19 04:25:14;;;;;;;8.02;5.60;;;;;;;5.95;78.45;101614.63;5016089;28;20108;-69
2022/04/19 04:27:39;;;;;;;10.68;5.93;;;;;;;5.96;78.83;101613.75;5014952;28;20018;-68
2022/04/19 04:30:06;;;;;;;11.13;5.47;;;;;;;5.96;78.62;101612.88;5014810;28;20032;-68
2022/04/19 04:32:32;;;;;;;8.30;5.47;;;;;;;5.96;78.47;101610.25;5014410;28;20030;-69
2022/04/19 04:34:58;;;;;;;10.23;6.07;;;;;;;5.98;77.96;101613.72;4997049;28;20374;-69
2022/04/19 04:37:23;;;;;;;9.68;6.10;;;;;;;5.98;78.15;101616.34;4998654;28;20025;-68
2022/04/19 04:39:49;;;;;;;9.13;5.95;;;;;;;5.97;78.08;101617.22;5011799;28;20041;-69
2022/04/19 04:42:14;;;;;;;10.00;5.82;;;;;;;5.95;78.83;101621.66;5030187;28;20457;-68
2022/04/19 04:44:40;;;;;;;11.70;6.28;;;;;;;5.94;79.02;101619.91;5035077;28;20112;-68
2022/04/19 04:49:49;;;;;;;10.18;5.88;;;;;;;5.91;79.63;101627.81;5035350;28;20184;-68
2022/04/19 04:52:15;;;;;;;10.13;6.35;;;;;;;5.88;79.47;101630.50;5035186;28;20048;-69
2022/04/19 04:54:42;;;;;;;13.75;6.35;;;;;;;5.86;80.18;101633.16;5016578;28;20045;-68
2022/04/19 04:57:08;;;;;;;10.05;5.80;;;;;;;5.84;80.06;101638.41;5032300;28;20060;-69
2022/04/19 04:59:35;;;;;;;12.68;6.57;;;;;;;5.86;80.14;101633.16;5034527;28;20039;-68
2022/04/19 05:02:01;;;;;;;11.50;6.25;;;;;;;5.87;79.93;101629.63;5032927;28;20094;-68
2022/04/19 05:04:27;;;;;;;10.15;6.05;;;;;;;5.90;80.29;101633.97;5034180;28;20037;-68
2022/04/19 05:06:53;;;;;;;10.35;5.85;;;;;;;5.96;80.96;101636.53;5035171;28;20036;-68
2022/04/19 05:09:18;;;;;;;12.07;6.10;;;;;;;6.00;81.13;101640.88;5034806;28;20072;-68
2022/04/19 05:11:50;;;;;;;11.68;6.53;;;;;;;6.01;81.31;101645.22;5033540;28;20104;-69
2022/04/19 05:14:16;;;;;;;9.57;5.93;;;;;;;6.04;81.04;101642.56;5035473;28;20464;-69
2022/04/19 05:16:42;;;;;;;9.88;5.60;;;;;;;6.08;81.31;101639.03;5017197;28;20036;-69
2022/04/19 05:19:08;;;;;;;11.60;5.40;;;;;;;6.13;81.22;101640.72;5033311;28;20037;-69
2022/04/19 05:21:37;;;;;;;10.50;5.93;;;;;;;6.17;81.85;101639.78;5004634;28;20709;-69
2022/04/19 05:24:07;;;;;;;8.60;5.65;;;;;;;6.19;81.24;101643.25;5033469;28;20484;-69
2022/04/19 05:26:32;;;;;;;8.20;5.18;;;;;;;6.26;81.21;101647.53;5021581;28;20087;-69
2022/04/19 05:28:58;;;;;;;10.88;5.25;;;;;;;6.34;81.37;101639.53;5034935;28;20037;-69
2022/04/19 05:31:24;;;;;;;8.02;5.07;;;;;;;6.43;81.24;101649.06;5016101;28;20029;-69
2022/04/19 05:33:49;;;;;;;10.05;5.82;;;;;;;6.51;81.08;101642.78;5036016;28;20044;-71
2022/04/19 05:36:15;;;;;;;6.78;4.90;;;;;;;6.61;80.92;101638.25;5037737;28;20043;-69
2022/04/19 05:38:41;;;;;;;9.32;5.88;;;;;;;6.73;80.39;101642.44;5035871;28;20648;-70
2022/04/19 05:41:06;;;;;;;8.27;5.10;;;;;;;6.84;80.33;101650.16;5037332;28;20088;-70
2022/04/19 05:43:32;;;;;;;7.85;5.45;;;;;;;6.91;79.84;101645.63;5035634;28;20044;-68
2022/04/19 05:45:58;;;;;;;8.43;5.10;;;;;;;6.99;79.73;101645.53;5033186;28;20396;-69
2022/04/19 05:48:26;;;;;;;10.13;5.45;;;;;;;7.08;79.65;101642.72;5035966;28;21432;-68
2022/04/19 05:50:52;;;;;;;10.05;5.65;;;;;;;7.14;79.25;101637.34;5032766;28;20506;-69
2022/04/19 05:53:18;;;;;;;10.40;5.85;;;;;;;7.22;79.13;101641.59;5034413;28;20032;-69
2022/04/19 05:55:44;;;;;;;10.65;5.97;;;;;;;7.29;78.72;101641.47;5034873;28;20051;-70
2022/04/19 05:58:09;;;;;;;9.45;5.72;;;;;;;7.37;78.54;101643.06;5037747;28;20037;-70
2022/04/19 06:00:35;;;;;;;7.53;5.05;;;;;;;7.44;78.37;101649.97;5036389;28;20676;-69
2022/04/19 06:05:45;;;;;;;11.10;5.93;;;;;;;7.57;78.59;101647.97;5035249;28;20036;-69
2022/04/19 06:08:11;;;;;;;8.10;5.57;;;;;;;7.65;78.68;101651.31;5019166;28;20401;-69
2022/04/19 06:10:36;;;;;;;9.30;5.75;;;;;;;7.73;78.61;101645.88;5018008;28;20435;-70
2022/04/19 06:13:02;;;;;;;9.40;5.30;;;;;;;7.83;78.31;101651.81;5036733;28;20068;-70
2022/04/19 06:15:27;;;;;;;9.15;5.70;;;;;;;7.94;78.22;101656.84;5036539;28;20047;-70
2022/04/19 06:17:53;;;;;;;13.30;6.30;;;;;;;8.09;78.27;101653.91;5036052;28;20091;-70
2022/04/19 06:20:18;;;;;;;9.20;5.47;;;;;;;8.31;78.54;101655.19;5030887;28;20041;-70
2022/04/19 06:22:44;;;;;;;10.40;6.20;;;;;;;8.59;78.84;101650.16;5032736;28;20476;-70
2022/04/19 06:25:11;;;;;;;9.65;5.88;;;;;;;8.87;77.88;101659.19;5036011;28;20025;-68
2022/04/19 06:27:36;;;;;;;7.82;5.20;;;;;;;9.07;76.52;101654.25;5035612;28;20543;-71
2022/04/19 06:30:04;;;;;;;10.55;6.25;;;;;;;9.28;76.54;101654.59;5033845;28;20044;-69
2022/04/19 06:32:31;;;;;;;8.40;5.32;;;;;;;9.43;76.18;101652.44;4983832;28;20041;-70
2022/04/19 06:34:56;;;;;;;8.07;5.55;;;;;;;9.60;76.00;101651.97;5016154;28;20528;-74
2022/04/19 06:37:22;;;;;;;9.10;5.00;;;;;;;9.79;75.58;101652.28;5000887;28;20037;-76
2022/04/19 06:39:48;;;;;;;11.25;5.53;;;;;;;10.00;74.99;101655.22;5034868;28;20036;-77
2022/04/19 06:42:14;;;;;;;9.60;5.88;;;;;;;10.22;74.63;101655.44;5030651;28;20548;-81
2022/04/19 06:44:39;;;;;;;10.40;5.93;;;;;;;10.43;74.60;101653.94;5055061;28;20033;-76
2022/04/19 06:47:08;;;;;;;9.98;5.38;;;;;;;10.65;74.15;101660.28;5053351;28;20559;-77
2022/04/19 06:49:33;;;;;;;11.57;5.07;;;;;;;10.82;73.48;101665.03;5036399;28;20048;-72
2022/04/19 06:51:59;;;;;;;9.32;5.35;;;;;;;10.93;72.67;101662.91;5052688;28;20115;-73
2022/04/19 06:54:25;;;;;;;8.23;5.38;;;;;;;11.06;72.97;101671.28;5055212;28;20512;-71
2022/04/19 06:56:50;;;;;;;8.07;5.78;;;;;;;11.24;72.62;101661.81;5037262;28;20029;-73
2022/04/19 07:26:37;;;;;;;7.85;4.90;;;;;;;11.60;67.56;101678.28;5050332;28;20467;-72
2022/04/19 07:29:13;;;;;;;8.73;4.88;;;;;;;11.58;67.77;101685.41;5066040;28;20036;-72
2022/04/19 07:31:40;;;;;;;9.07;4.90;;;;;;;11.62;68.81;101679.97;5048225;28;20485;-73
2022/04/19 07:34:06;;;;;;;7.90;4.90;;;;;;;11.72;68.85;101683.09;5066525;28;20043;-73
2022/04/19 07:36:35;;;;;;;7.82;5.10;;;;;;;11.83;69.61;101682.72;5065048;28;20041;-73
2022/04/19 07:39:03;;;;;;;9.80;5.50;;;;;;;11.93;69.27;101681.44;5048804;28;20629;-73
2022/04/19 07:41:30;;;;;;;7.88;4.97;;;;;;;11.98;69.60;101683.06;5049562;28;20044;-76
2022/04/19 07:43:55;;;;;;;8.32;4.90;;;;;;;12.04;69.35;101689.03;5042559;28;20826;-73
2022/04/19 07:46:21;;;;;;;7.80;4.90;;;;;;;12.13;69.50;101687.81;5047959;28;20631;-73
2022/04/19 07:51:51;;;;;;;7.82;4.75;;;;;;;12.29;68.25;101693.41;5096591;27;20500;-71
2022/04/19 07:54:17;;;;;;;6.53;4.50;;;;;;;12.39;68.04;101693.91;5074308;28;20131;-71
2022/04/19 07:56:42;;;;;;;11.23;5.43;;;;;;;12.51;67.78;101687.22;5074973;28;20588;-71
2022/04/19 07:59:07;;;;;;;9.63;4.72;;;;;;;12.65;67.26;101697.31;5072881;28;20040;-70
2022/04/19 08:01:33;;;;;;;8.35;4.75;;;;;;;12.77;66.99;101693.28;5073824;28;20144;-70
2022/04/19 08:03:59;;;;;;;9.18;4.93;;;;;;;12.86;67.12;101690.22;5071418;28;20063;-74
2022/04/19 08:06:24;;;;;;;8.20;4.72;;;;;;;12.98;66.42;101686.22;5075034;28;20621;-70
2022/04/19 08:08:50;;;;;;;8.35;4.45;;;;;;;13.07;66.04;101690.25;5072182;28;20035;-70
2022/04/19 08:11:15;;;;;;;8.23;4.70;;;;;;;13.20;65.79;101695.06;5074051;28;20115;-71
2022/04/19 08:13:41;;;;;;;7.97;4.57;;;;;;;13.34;65.48;101686.50;5059922;28;20443;-71
2022/04/19 08:16:08;;;;;;;9.48;4.93;;;;;;;13.51;65.26;101685.78;5073448;28;20032;-71
2022/04/19 08:18:33;;;;;;;7.25;4.88;;;;;;;13.65;64.32;101682.47;5072107;28;20028;-71
2022/04/19 08:20:59;;;;;;;7.88;4.88;;;;;;;13.78;64.73;101686.31;5072110;28;20391;-71
2022/04/19 08:23:24;;;;;;;8.05;4.53;;;;;;;13.89;64.21;101690.28;5060360;28;20955;-70
2022/04/19 08:25:50;;;;;;;7.25;4.25;;;;;;;13.97;62.47;101693.47;5071177;28;20668;-72
2022/04/19 08:28:15;;;;;;;7.53;4.38;;;;;;;14.02;62.85;101686.13;5072020;28;20032;-71
2022/04/19 08:30:41;;;;;;;8.07;4.15;;;;;;;14.10;62.34;101686.63;5072481;28;20044;-71
2022/04/19 08:33:06;;;;;;;6.95;3.78;;;;;;;14.23;61.79;101691.38;5073660;28;20517;-72
2022/04/19 08:35:32;;;;;;;7.28;4.32;;;;;;;14.36;61.69;101692.53;5080310;28;20040;-72
2022/04/19 08:37:57;;;;;;;5.75;3.90;;;;;;;14.54;62.48;101695.22;5082527;28;20036;-72
2022/04/19 08:40:25;;;;;;;5.68;3.75;;;;;;;14.68;60.82;101699.88;5060496;28;20757;-74
2022/04/19 08:42:51;;;;;;;5.95;3.60;;;;;;;14.70;60.21;101691.81;5075497;28;20029;-72
2022/04/19 08:45:19;;;;;;;5.35;3.65;;;;;;;14.74;60.38;101693.41;5071571;28;21476;-72
2022/04/19 08:47:47;;;;;;;6.00;3.38;;;;;;;14.85;60.45;101700.88;5071615;28;20024;-71
2022/04/19 08:50:15;;;;;;;5.43;3.33;;;;;;;14.89;59.83;101700.66;5070440;28;20106;-72
2022/04/19 08:52:41;;;;;;;7.22;3.72;;;;;;;15.04;60.24;101709.66;5068563;28;20065;-72
2022/04/19 08:57:53;;;;;;;5.18;2.90;;;;;;;15.40;59.72;101701.66;5083234;28;20036;-73
2022/04/19 09:00:23;;;;;;;3.88;3.00;;;;;;;15.55;59.79;101708.00;5053158;28;20029;-72
2022/04/19 09:02:58;;;;;;;4.15;2.75;;;;;;;15.69;58.63;101699.25;5059201;28;20203;-73
2022/04/19 09:05:28;;;;;;;4.38;2.45;;;;;;;15.75;58.57;101698.94;5060713;28;20040;-72
2022/04/19 09:07:57;;;;;;;4.35;2.70;;;;;;;15.75;58.10;101701.59;5045980;28;20602;-73
2022/04/19 09:10:31;;;;;;;3.50;2.20;;;;;;;15.77;56.29;101697.03;5036805;28;20025;-72
2022/04/19 09:13:04;;;;;;;3.80;2.38;;;;;;;15.78;56.93;101698.75;5058438;28;20068;-73
2022/04/19 09:15:40;;;;;;;3.70;2.20;;;;;;;15.91;56.50;101696.28;5059112;28;20036;-74
2022/04/19 09:18:29;;;;;;;4.30;2.83;;;;;;;16.02;56.90;101701.94;5045549;28;20040;-73
2022/04/19 09:20:56;;;;;;;7.25;3.30;;;;;;;16.11;56.71;101691.69;5053992;28;20040;-74
2022/04/19 09:23:22;;;;;;;3.80;2.55;;;;;;;16.11;57.40;101689.88;5057302;28;20048;-72
2022/04/19 09:26:14;;;;;;;4.20;2.60;;;;;;;16.23;55.75;101692.81;5045294;28;20624;-73
2022/04/19 09:28:41;;;;;;;3.42;2.47;;;;;;;16.32;56.66;101686.06;5054332;28;20049;-73
2022/04/19 09:31:11;;;;;;;4.45;2.65;;;;;;;16.34;56.51;101695.72;5064185;28;20044;-73
2022/04/19 09:33:36;;;;;;;4.47;2.47;;;;;;;16.38;56.33;101691.06;5039086;28;20745;-73
2022/04/19 09:36:03;;;;;;;3.85;2.55;;;;;;;16.38;56.30;101685.72;5041008;28;20115;-73
2022/04/19 09:38:34;;;;;;;4.20;2.70;;;;;;;16.46;56.09;101687.97;5056051;28;20398;-74
2022/04/19 09:40:59;;;;;;;3.40;2.22;;;;;;;16.48;55.96;101686.06;5068957;28;20161;-74
2022/04/19 09:43:25;;;;;;;4.00;2.47;;;;;;;16.53;56.14;101675.97;5054555;28;20503;-72
2022/04/19 09:45:58;;;;;;;4.25;2.38;;;;;;;16.58;52.44;101676.59;5057113;28;20055;-72
2022/04/19 09:48:28;;;;;;;3.83;2.47;;;;;;;16.50;53.24;101677.03;5055418;28;20284;-73
2022/04/19 09:50:58;;;;;;;3.17;1.95;;;;;;;16.44;53.34;101672.03;5058058;28;20091;-74
2022/04/19 09:53:26;;;;;;;2.65;2.17;;;;;;;16.52;53.95;101676.94;5058080;28;20694;-73
2022/04/19 09:55:55;;;;;;;3.35;2.13;;;;;;;16.58;53.13;101671.25;5057374;28;20036;-73
2022/04/19 09:58:21;;;;;;;3.25;2.05;;;;;;;16.62;52.09;101669.25;5055909;28;20095;-73
2022/04/19 10:00:48;;;;;;;3.72;2.30;;;;;;;16.50;52.22;101668.16;5056749;28;20046;-73
2022/04/19 10:08:46;;;;;;;2.45;2.08;;;;;;;16.25;51.40;101666.88;5008382;28;20488;-74
2022/04/19 10:11:13;;;;;;;2.92;2.22;;;;;;;16.25;51.47;101658.88;5029309;28;20048;-73
2022/04/19 10:13:40;;;;;;;3.20;2.00;;;;;;;16.25;51.64;101665.03;5043751;28;20024;-73
2022/04/19 10:16:11;;;;;;;2.28;2.00;;;;;;;16.14;49.62;101660.31;5057674;28;20263;-74
2022/04/19 10:18:37;;;;;;;2.45;1.98;;;;;;;15.91;51.13;101660.72;5044926;28;20113;-73
2022/04/19 10:21:07;;;;;;;1.70;1.50;;;;;;;15.75;50.70;101656.22;5057350;28;20032;-74
2022/04/19 10:23:42;;;;;;;2.95;1.83;;;;;;;15.67;51.33;101661.97;5045125;28;20037;-73
2022/04/19 10:26:14;;;;;;;1.90;1.40;;;;;;;15.69;49.62;101656.56;5062891;28;20029;-74
2022/04/19 10:28:39;;;;;;;1.63;1.13;;;;;;;15.61;50.60;101665.84;5028867;28;20433;-75
2022/04/19 10:31:05;;;;;;;1.67;1.20;;;;;;;15.56;50.00;101659.88;5057232;28;20044;-74
2022/04/19 10:33:54;;;;;;;1.10;0.98;;;;;;;15.42;49.83;101654.44;5048269;28;20349;-73
2022/04/19 10:36:22;;;;;;;1.08;0.80;;;;;;;15.37;49.67;101660.00;5059302;28;20555;-72
2022/04/19 10:39:15;;;;;;;1.02;0.90;;;;;;;15.37;46.43;101659.13;5056264;28;20033;-69
2022/04/19 10:42:00;;;;;;;1.10;1.00;;;;;;;15.34;47.51;101663.69;5053549;28;20391;-70
2022/04/19 10:44:39;;;;;;;1.08;1.00;;;;;;;15.38;47.95;101658.19;5072109;28;20474;-70
2022/04/19 10:47:16;;;;;;;1.35;1.25;;;;;;;15.37;48.09;101668.03;5055141;28;20039;-70
2022/04/19 10:50:01;;;;;;;1.88;1.08;;;;;;;15.42;46.64;101667.78;5053771;28;20318;-69
2022/04/19 10:52:36;;;;;;;1.08;0.88;;;;;;;15.45;45.15;101668.47;5045157;28;20024;-70
2022/04/19 10:55:03;;;;;;;0.80;0.80;;;;;;;15.45;46.50;101665.78;5055901;28;20535;-70
2022/04/19 11:00:33;;;;;;;0.73;0.73;;;;;;;15.30;45.49;101672.78;5047936;28;20029;-70
2022/04/19 11:03:17;;;;;;;1.40;0.90;;;;;;;15.32;44.89;101672.72;5058111;28;20060;-70
2022/04/19 11:05:52;;;;;;;1.65;1.08;;;;;;;15.37;44.93;101667.13;5057465;28;20394;-69
2022/04/19 11:08:26;;;;;;;1.38;0.82;;;;;;;15.34;42.46;101662.81;5057023;28;20510;-70
2022/04/19 11:10:51;;;;;;;1.42;1.30;;;;;;;15.20;44.46;101666.22;5051851;28;20092;-70
2022/04/19 11:13:26;;;;;;;1.33;1.00;;;;;;;15.21;44.59;101659.94;5055435;28;20462;-69
2022/04/19 11:16:01;;;;;;;2.13;1.30;;;;;;;15.28;44.09;101664.03;5069500;28;20040;-69
2022/04/19 11:18:29;;;;;;;1.80;0.95;;;;;;;15.31;45.17;101663.00;5055711;28;20505;-70
2022/04/19 11:20:57;;;;;;;1.70;1.10;;;;;;;15.40;44.89;101658.97;5052901;28;20053;-72
2022/04/19 11:23:26;;;;;;;1.27;1.08;;;;;;;15.43;45.44;101664.16;5045071;28;21447;-71
2022/04/19 11:25:56;;;;;;;1.38;1.00;;;;;;;15.42;45.47;101660.59;5043547;28;20111;-71
2022/04/19 11:28:24;;;;;;;1.30;0.98;;;;;;;15.46;45.34;101663.97;5029120;28;20085;-69
2022/04/19 11:30:50;;;;;;;2.65;1.00;;;;;;;15.50;45.42;101665.53;5056972;28;20144;-70
2022/04/19 11:33:33;;;;;;;2.08;1.10;;;;;;;15.53;45.21;101665.38;5057164;28;20028;-70
2022/04/19 11:36:03;;;;;;;2.03;0.80;;;;;;;15.58;45.00;101660.66;5057164;28;20479;-70
2022/04/19 11:38:49;;;;;;;0.90;0.90;;;;;;;15.54;43.50;101663.56;5057904;28;20076;-71
2022/04/19 11:46:56;;;;;;;1.23;1.00;;;;;;;15.36;45.94;101639.59;5068332;28;20466;-69
2022/04/19 11:49:22;;;;;;;1.60;1.20;;;;;;;15.39;45.65;101658.13;5046085;28;20024;-69
2022/04/19 11:51:55;;;;;;;2.35;1.25;;;;;;;15.34;45.09;101654.81;5058743;28;20087;-72
2022/04/19 11:54:25;;;;;;;1.10;0.82;;;;;;;15.30;45.68;101640.78;5046065;28;20040;-74
2022/04/19 11:56:56;;;;;;;0.80;0.80;;;;;;;15.32;44.49;101649.56;5054454;28;20502;-73
2022/04/19 11:59:26;;;;;;;2.65;1.10;;;;;;;15.33;44.43;101655.78;5044899;28;20027;-71
2022/04/19 12:01:52;;;;;;;0.98;0.98;;;;;;;15.29;45.09;101655.06;5056866;28;20044;-71
2022/04/19 12:04:18;;;;;;;1.20;1.10;;;;;;;15.24;45.27;101661.59;5058038;28;20372;-73
2022/04/19 12:06:48;;;;;;;1.50;1.25;;;;;;;15.25;45.86;101649.97;5046807;28;20028;-70
2022/04/19 12:09:16;;;;;;;1.30;1.20;;;;;;;15.28;46.39;101657.81;5057920;28;20586;-71
2022/04/19 12:11:42;;;;;;;1.05;0.98;;;;;;;15.31;46.40;101653.19;5052435;28;21561;-72
2022/04/19 12:14:08;;;;;;;1.05;1.00;;;;;;;15.35;45.80;101648.53;5072372;28;20139;-72
2022/04/19 12:16:34;;;;;;;1.75;1.15;;;;;;;15.37;45.98;101646.69;5071639;28;20031;-72
2022/04/19 12:19:02;;;;;;;1.17;1.08;;;;;;;15.37;45.52;101648.47;5056628;28;20193;-72
2022/04/19 12:21:44;;;;;;;1.90;1.13;;;;;;;15.36;46.27;101658.25;5048838;28;20750;-73
2022/04/19 12:24:23;;;;;;;1.80;1.40;;;;;;;15.31;46.01;101653.19;5049078;28;20510;-73
2022/04/19 12:26:50;;;;;;;2.17;1.50;;;;;;;15.22;46.06;101661.66;5062085;28;20036;-72
2022/04/19 12:29:16;;;;;;;2.20;1.50;;;;;;;15.18;46.29;101652.97;5046067;28;20028;-72
2022/04/19 12:31:50;;;;;;;1.88;1.52;;;;;;;15.23;47.18;101654.50;5054309;28;20554;-72